createdAt,value
2018-09-26T00:00:04.704Z,79.70
2018-09-26T00:01:17.247Z,79.70
2018-09-26T00:02:56.317Z,79.70
2018-09-26T00:04:08.827Z,79.70
2018-09-26T00:05:12.290Z,79.80
2018-09-26T00:06:15.716Z,79.80
2018-09-26T00:07:19.112Z,79.80
2018-09-26T00:08:22.540Z,79.80
2018-09-26T00:09:26.521Z,80.00
2018-09-26T00:10:30.049Z,80.10
2018-09-26T00:11:33.492Z,80.10
2018-09-26T00:12:36.876Z,80.10
2018-09-26T00:13:40.293Z,80.10
2018-09-26T00:14:43.692Z,80.20
2018-09-26T00:15:47.345Z,80.30
2018-09-26T00:16:50.751Z,80.40
2018-09-26T00:17:54.165Z,80.30
2018-09-26T00:18:57.576Z,80.30
2018-09-26T00:20:00.977Z,80.30
2018-09-26T00:21:04.399Z,80.30
2018-09-26T00:22:07.879Z,80.30
2018-09-26T00:23:11.272Z,80.30
2018-09-26T00:24:14.663Z,80.20
2018-09-26T00:25:18.052Z,80.10
2018-09-26T00:26:21.449Z,80.10
2018-09-26T00:27:24.857Z,80.20
2018-09-26T00:28:28.252Z,80.20
2018-09-26T00:29:31.723Z,80.20
2018-09-26T00:30:35.200Z,80.20
2018-09-26T00:31:38.597Z,80.10
2018-09-26T00:32:42.009Z,80.10
2018-09-26T00:33:45.516Z,80.30
2018-09-26T00:34:48.913Z,80.30
2018-09-26T00:35:52.342Z,80.30
2018-09-26T00:36:55.750Z,80.30
2018-09-26T00:37:59.269Z,80.20
2018-09-26T00:39:02.752Z,80.20
2018-09-26T00:40:06.969Z,80.20
2018-09-26T00:41:10.368Z,80.20
2018-09-26T00:42:13.770Z,80.10
2018-09-26T00:43:17.207Z,80.10
2018-09-26T00:44:20.591Z,80.30
2018-09-26T00:45:23.996Z,80.00
2018-09-26T00:46:27.412Z,79.90
2018-09-26T00:47:30.864Z,79.90
2018-09-26T00:48:34.337Z,80.00
2018-09-26T00:49:37.740Z,80.00
2018-09-26T00:50:41.120Z,80.00
2018-09-26T00:51:44.519Z,80.20
2018-09-26T00:52:47.916Z,80.20
2018-09-26T00:53:51.328Z,80.20
2018-09-26T00:54:54.756Z,80.20
2018-09-26T00:55:58.197Z,80.20
2018-09-26T00:57:01.571Z,80.00
2018-09-26T00:58:04.967Z,80.80
2018-09-26T00:59:08.442Z,80.60
2018-09-26T01:00:11.849Z,80.20
2018-09-26T01:01:15.324Z,80.30
2018-09-26T01:02:18.741Z,80.40
2018-09-26T01:03:22.136Z,80.40
2018-09-26T01:04:25.549Z,80.30
2018-09-26T01:05:28.940Z,80.40
2018-09-26T01:06:32.371Z,80.50
2018-09-26T01:07:35.864Z,80.50
2018-09-26T01:08:39.253Z,80.50
2018-09-26T01:09:42.660Z,80.50
2018-09-26T01:10:46.176Z,80.50
2018-09-26T01:11:49.616Z,80.50
2018-09-26T01:12:53.005Z,80.50
2018-09-26T01:13:56.413Z,80.50
2018-09-26T01:14:59.823Z,80.50
2018-09-26T01:16:03.213Z,80.50
2018-09-26T01:17:06.664Z,80.50
2018-09-26T01:18:10.093Z,80.50
2018-09-26T01:19:13.477Z,80.50
2018-09-26T01:20:16.888Z,80.40
2018-09-26T01:21:20.309Z,80.20
2018-09-26T01:22:23.708Z,80.70
2018-09-26T01:23:27.096Z,80.00
2018-09-26T01:24:30.630Z,79.80
2018-09-26T01:25:34.056Z,79.70
2018-09-26T01:26:37.529Z,79.60
2018-09-26T01:27:40.922Z,79.50
2018-09-26T01:28:44.351Z,79.50
2018-09-26T01:29:47.740Z,79.40
2018-09-26T01:30:51.273Z,79.20
2018-09-26T01:31:54.648Z,79.20
2018-09-26T01:32:58.043Z,79.20
2018-09-26T01:34:01.459Z,79.10
2018-09-26T01:35:04.852Z,79.10
2018-09-26T01:36:08.292Z,79.00
2018-09-26T01:37:11.672Z,78.90
2018-09-26T01:38:15.072Z,78.90
2018-09-26T01:39:18.477Z,78.80
2018-09-26T01:40:21.910Z,78.80
2018-09-26T01:41:25.360Z,78.80
2018-09-26T01:42:28.873Z,78.70
2018-09-26T01:43:32.312Z,78.70
2018-09-26T01:44:35.718Z,78.70
2018-09-26T01:45:39.408Z,78.70
2018-09-26T01:46:42.815Z,78.60
2018-09-26T01:47:46.239Z,78.50
2018-09-26T01:48:49.716Z,78.50
2018-09-26T01:49:53.156Z,79.20
2018-09-26T01:50:56.562Z,78.50
2018-09-26T01:52:00.005Z,78.60
2018-09-26T01:53:03.388Z,78.40
2018-09-26T01:54:07.116Z,78.60
2018-09-26T01:55:10.518Z,78.60
2018-09-26T01:56:13.926Z,78.60
2018-09-26T01:57:17.419Z,79.10
2018-09-26T01:58:20.844Z,78.60
2018-09-26T01:59:24.342Z,78.50
2018-09-26T02:00:27.751Z,78.50
2018-09-26T02:01:31.158Z,78.60
2018-09-26T02:02:34.749Z,78.50
2018-09-26T02:03:38.197Z,78.50
2018-09-26T02:04:41.930Z,78.60
2018-09-26T02:05:45.348Z,78.60
2018-09-26T02:06:48.788Z,78.60
2018-09-26T02:07:52.204Z,78.60
2018-09-26T02:08:55.609Z,78.60
2018-09-26T02:09:59.057Z,78.60
2018-09-26T02:11:02.460Z,78.70
2018-09-26T02:12:06.003Z,78.70
2018-09-26T02:13:09.403Z,78.70
2018-09-26T02:14:12.803Z,78.70
2018-09-26T02:15:16.202Z,78.80
2018-09-26T02:16:19.579Z,78.90
2018-09-26T02:17:22.983Z,79.00
2018-09-26T02:18:26.401Z,79.00
2018-09-26T02:19:29.793Z,79.00
2018-09-26T02:20:33.177Z,79.00
2018-09-26T02:21:36.604Z,79.10
2018-09-26T02:22:40.102Z,79.10
2018-09-26T02:23:43.577Z,79.20
2018-09-26T02:24:46.947Z,79.20
2018-09-26T02:25:50.357Z,79.20
2018-09-26T02:26:53.751Z,79.20
2018-09-26T02:27:57.176Z,79.20
2018-09-26T02:29:00.576Z,79.20
2018-09-26T02:30:04.030Z,79.20
2018-09-26T02:31:07.622Z,79.20
2018-09-26T02:32:11.021Z,79.30
2018-09-26T02:33:14.436Z,79.30
2018-09-26T02:34:17.853Z,79.30
2018-09-26T02:35:21.257Z,79.40
2018-09-26T02:36:24.652Z,79.50
2018-09-26T02:37:28.077Z,79.60
2018-09-26T02:38:31.503Z,80.20
2018-09-26T02:39:35.109Z,79.70
2018-09-26T02:40:38.494Z,79.70
2018-09-26T02:41:41.952Z,79.70
2018-09-26T02:42:45.380Z,79.60
2018-09-26T02:43:48.804Z,79.60
2018-09-26T02:44:52.196Z,79.50
2018-09-26T02:45:55.589Z,79.50
2018-09-26T02:46:58.980Z,79.50
2018-09-26T02:48:02.385Z,79.50
2018-09-26T02:49:06.581Z,79.40
2018-09-26T02:50:10.236Z,79.40
2018-09-26T02:51:13.685Z,79.50
2018-09-26T02:52:17.080Z,79.50
2018-09-26T02:53:20.508Z,79.40
2018-09-26T02:54:23.892Z,79.50
2018-09-26T02:55:27.312Z,79.50
2018-09-26T02:56:30.769Z,79.60
2018-09-26T02:57:34.157Z,79.60
2018-09-26T02:58:37.555Z,79.60
2018-09-26T02:59:40.945Z,79.60
2018-09-26T03:00:44.366Z,79.50
2018-09-26T03:01:47.756Z,79.50
2018-09-26T03:02:51.168Z,79.60
2018-09-26T03:03:54.604Z,79.60
2018-09-26T03:04:57.999Z,79.60
2018-09-26T03:06:01.565Z,79.60
2018-09-26T03:07:04.972Z,79.60
2018-09-26T03:08:08.384Z,79.70
2018-09-26T03:09:11.925Z,79.70
2018-09-26T03:10:15.666Z,79.80
2018-09-26T03:11:19.051Z,79.60
2018-09-26T03:12:22.432Z,79.70
2018-09-26T03:13:25.840Z,79.80
2018-09-26T03:14:29.233Z,79.80
2018-09-26T03:15:32.632Z,79.90
2018-09-26T03:16:36.075Z,79.80
2018-09-26T03:17:39.496Z,79.80
2018-09-26T03:18:43.148Z,80.30
2018-09-26T03:19:46.629Z,79.90
2018-09-26T03:20:50.071Z,79.80
2018-09-26T03:21:53.456Z,79.80
2018-09-26T03:22:56.864Z,79.80
2018-09-26T03:24:00.259Z,79.70
2018-09-26T03:25:03.647Z,79.80
2018-09-26T03:26:07.253Z,79.80
2018-09-26T03:27:10.644Z,79.80
2018-09-26T03:28:14.053Z,79.80
2018-09-26T03:29:17.468Z,79.70
2018-09-26T03:30:20.875Z,79.80
2018-09-26T03:31:24.352Z,79.80
2018-09-26T03:32:27.757Z,79.80
2018-09-26T03:33:31.198Z,79.80
2018-09-26T03:34:34.592Z,79.80
2018-09-26T03:35:37.998Z,79.80
2018-09-26T03:36:41.428Z,79.80
2018-09-26T03:37:44.985Z,79.80
2018-09-26T03:38:48.497Z,79.90
2018-09-26T03:39:51.892Z,79.80
2018-09-26T03:40:55.279Z,79.70
2018-09-26T03:41:58.699Z,79.70
2018-09-26T03:43:02.095Z,79.80
2018-09-26T03:44:05.508Z,79.80
2018-09-26T03:45:08.924Z,79.90
2018-09-26T03:46:12.304Z,80.00
2018-09-26T03:47:15.707Z,80.60
2018-09-26T03:48:19.103Z,80.00
2018-09-26T03:49:22.516Z,80.10
2018-09-26T03:50:25.916Z,80.00
2018-09-26T03:51:29.299Z,80.10
2018-09-26T03:52:32.747Z,80.10
2018-09-26T03:53:36.296Z,80.20
2018-09-26T03:54:39.716Z,80.20
2018-09-26T03:55:43.108Z,80.20
2018-09-26T03:56:46.497Z,80.20
2018-09-26T03:57:49.924Z,80.30
2018-09-26T03:58:53.338Z,80.30
2018-09-26T03:59:56.732Z,80.40
2018-09-26T04:01:00.133Z,80.40
2018-09-26T04:02:03.561Z,80.40
2018-09-26T04:03:07.025Z,80.60
2018-09-26T04:04:10.433Z,80.60
2018-09-26T04:05:13.844Z,80.60
2018-09-26T04:06:17.248Z,80.60
2018-09-26T04:07:20.635Z,80.60
2018-09-26T04:08:24.028Z,80.60
2018-09-26T04:09:27.428Z,80.60
2018-09-26T04:10:30.836Z,81.30
2018-09-26T04:11:34.216Z,80.70
2018-09-26T04:12:37.654Z,80.70
2018-09-26T04:13:41.085Z,80.80
2018-09-26T04:14:44.485Z,80.80
2018-09-26T04:15:55.212Z,80.80
2018-09-26T04:16:58.611Z,80.70
2018-09-26T04:18:02.018Z,80.70
2018-09-26T04:19:05.436Z,80.70
2018-09-26T04:20:08.883Z,81.30
2018-09-26T04:21:12.256Z,80.60
2018-09-26T04:22:15.673Z,80.60
2018-09-26T04:23:19.107Z,80.50
2018-09-26T04:24:22.504Z,80.40
2018-09-26T04:25:25.925Z,80.40
2018-09-26T04:26:29.433Z,80.30
2018-09-26T04:27:32.822Z,80.20
2018-09-26T04:28:36.151Z,80.10
2018-09-26T04:29:39.528Z,80.10
2018-09-26T04:30:42.945Z,80.00
2018-09-26T04:31:46.369Z,80.00
2018-09-26T04:32:49.894Z,79.90
2018-09-26T04:33:53.309Z,79.80
2018-09-26T04:34:56.692Z,79.80
2018-09-26T04:36:00.108Z,79.60
2018-09-26T04:37:03.529Z,79.60
2018-09-26T04:38:07.447Z,79.50
2018-09-26T04:39:12.136Z,79.50
2018-09-26T04:40:15.588Z,79.40
2018-09-26T04:41:19.010Z,79.30
2018-09-26T04:42:22.407Z,79.20
2018-09-26T04:43:25.924Z,79.20
2018-09-26T04:44:29.219Z,79.20
2018-09-26T04:45:32.623Z,79.20
2018-09-26T04:46:36.133Z,79.20
2018-09-26T04:47:39.568Z,79.20
2018-09-26T04:48:42.951Z,79.10
2018-09-26T04:49:46.357Z,79.10
2018-09-26T04:50:49.878Z,79.10
2018-09-26T04:51:53.227Z,79.10
2018-09-26T04:52:56.623Z,79.00
2018-09-26T04:54:00.077Z,79.00
2018-09-26T04:55:03.469Z,79.00
2018-09-26T04:56:06.944Z,79.00
2018-09-26T04:57:10.336Z,78.90
2018-09-26T04:58:13.816Z,78.10
2018-09-26T04:59:17.205Z,78.80
2018-09-26T05:00:20.599Z,78.80
2018-09-26T05:01:24.240Z,78.80
2018-09-26T05:02:27.628Z,78.70
2018-09-26T05:03:31.016Z,78.60
2018-09-26T05:04:34.400Z,78.70
2018-09-26T05:05:37.792Z,78.70
2018-09-26T05:06:41.180Z,78.70
2018-09-26T05:07:44.564Z,78.70
2018-09-26T05:08:48.149Z,78.60
2018-09-26T05:09:51.602Z,78.70
2018-09-26T05:10:55.049Z,78.50
2018-09-26T05:11:58.494Z,78.60
2018-09-26T05:13:01.915Z,78.60
2018-09-26T05:14:05.792Z,78.60
2018-09-26T05:15:09.180Z,78.60
2018-09-26T05:16:12.591Z,78.60
2018-09-26T05:17:16.021Z,78.60
2018-09-26T05:18:19.432Z,78.60
2018-09-26T05:19:22.824Z,78.70
2018-09-26T05:20:26.230Z,78.70
2018-09-26T05:21:29.814Z,78.70
2018-09-26T05:22:33.241Z,78.80
2018-09-26T05:23:36.621Z,78.80
2018-09-26T05:24:40.026Z,78.90
2018-09-26T05:25:43.435Z,78.90
2018-09-26T05:26:46.849Z,78.90
2018-09-26T05:27:50.246Z,79.00
2018-09-26T05:28:53.728Z,79.00
2018-09-26T05:29:57.233Z,79.10
2018-09-26T05:31:00.656Z,79.10
2018-09-26T05:32:04.039Z,79.20
2018-09-26T05:33:07.456Z,79.00
2018-09-26T05:34:10.840Z,79.10
2018-09-26T05:35:14.271Z,79.10
2018-09-26T05:36:17.672Z,79.00
2018-09-26T05:37:21.159Z,79.00
2018-09-26T05:38:24.564Z,79.00
2018-09-26T05:39:27.963Z,78.90
2018-09-26T05:40:31.388Z,78.90
2018-09-26T05:41:34.823Z,78.90
2018-09-26T05:42:38.192Z,78.70
2018-09-26T05:43:41.584Z,79.30
2018-09-26T05:44:44.960Z,78.70
2018-09-26T05:45:48.394Z,78.50
2018-09-26T05:46:51.842Z,78.50
2018-09-26T05:47:55.239Z,78.50
2018-09-26T05:48:58.669Z,78.40
2018-09-26T05:50:02.067Z,78.40
2018-09-26T05:51:05.491Z,78.30
2018-09-26T05:52:08.885Z,78.20
2018-09-26T05:53:12.268Z,78.10
2018-09-26T05:54:15.660Z,78.00
2018-09-26T05:55:19.084Z,78.10
2018-09-26T05:56:22.463Z,77.90
2018-09-26T05:57:25.854Z,77.80
2018-09-26T05:58:29.265Z,77.80
2018-09-26T05:59:32.723Z,77.60
2018-09-26T06:00:36.129Z,77.60
2018-09-26T06:01:39.504Z,77.50
2018-09-26T06:02:42.907Z,77.40
2018-09-26T06:03:46.284Z,77.30
2018-09-26T06:04:49.673Z,77.90
2018-09-26T06:05:53.097Z,77.20
2018-09-26T06:06:56.500Z,77.10
2018-09-26T06:08:00.094Z,77.10
2018-09-26T06:09:04.924Z,77.00
2018-09-26T06:10:08.357Z,77.00
2018-09-26T06:11:11.794Z,76.90
2018-09-26T06:12:15.181Z,76.90
2018-09-26T06:13:18.565Z,76.90
2018-09-26T06:14:22.013Z,76.90
2018-09-26T06:15:25.413Z,76.90
2018-09-26T06:16:28.853Z,76.90
2018-09-26T06:17:32.244Z,76.80
2018-09-26T06:18:35.696Z,76.80
2018-09-26T06:19:39.080Z,76.80
2018-09-26T06:20:42.531Z,76.80
2018-09-26T06:21:45.948Z,76.70
2018-09-26T06:22:49.336Z,76.50
2018-09-26T06:23:52.776Z,76.60
2018-09-26T06:24:56.180Z,76.50
2018-09-26T06:25:59.619Z,76.50
2018-09-26T06:27:03.118Z,76.40
2018-09-26T06:28:06.535Z,76.20
2018-09-26T06:29:10.113Z,76.20
2018-09-26T06:30:13.495Z,76.20
2018-09-26T06:31:16.936Z,76.20
2018-09-26T06:32:20.328Z,76.20
2018-09-26T06:33:24.035Z,76.30
2018-09-26T06:34:27.428Z,76.40
2018-09-26T06:35:30.851Z,76.40
2018-09-26T06:36:34.312Z,76.40
2018-09-26T06:37:37.767Z,76.40
2018-09-26T06:38:41.156Z,77.00
2018-09-26T06:39:44.585Z,76.50
2018-09-26T06:40:47.975Z,76.50
2018-09-26T06:41:51.405Z,76.50
2018-09-26T06:42:54.817Z,76.50
2018-09-26T06:43:58.221Z,76.50
2018-09-26T06:45:01.657Z,76.50
2018-09-26T06:46:05.236Z,76.50
2018-09-26T06:47:08.650Z,76.50
2018-09-26T06:48:12.063Z,76.50
2018-09-26T06:49:15.467Z,76.60
2018-09-26T06:50:18.872Z,76.50
2018-09-26T06:51:22.256Z,77.20
2018-09-26T06:52:25.676Z,76.40
2018-09-26T06:53:29.067Z,77.10
2018-09-26T06:54:32.997Z,76.40
2018-09-26T06:55:36.430Z,76.30
2018-09-26T06:56:39.829Z,76.30
2018-09-26T06:57:43.236Z,76.20
2018-09-26T06:58:46.645Z,76.10
2018-09-26T06:59:50.044Z,76.20
2018-09-26T07:00:53.489Z,76.10
2018-09-26T07:01:56.940Z,76.00
2018-09-26T07:03:00.365Z,75.90
2018-09-26T07:04:03.824Z,75.90
2018-09-26T07:05:07.248Z,75.80
2018-09-26T07:06:10.747Z,75.90
2018-09-26T07:07:14.241Z,75.90
2018-09-26T07:08:17.659Z,75.90
2018-09-26T07:09:21.055Z,75.90
2018-09-26T07:10:24.482Z,75.80
2018-09-26T07:11:28.037Z,75.80
2018-09-26T07:12:31.440Z,75.70
2018-09-26T07:13:34.993Z,75.70
2018-09-26T07:14:38.379Z,75.60
2018-09-26T07:15:41.807Z,75.60
2018-09-26T07:16:45.223Z,75.40
2018-09-26T07:17:48.620Z,75.40
2018-09-26T07:18:52.051Z,75.30
2018-09-26T07:19:55.436Z,75.10
2018-09-26T07:20:58.831Z,75.10
2018-09-26T07:22:02.241Z,75.10
2018-09-26T07:23:05.688Z,75.10
2018-09-26T07:24:09.176Z,75.10
2018-09-26T07:25:12.568Z,74.90
2018-09-26T07:26:15.964Z,74.90
2018-09-26T07:27:19.473Z,74.80
2018-09-26T07:28:22.933Z,74.40
2018-09-26T07:29:26.336Z,74.40
2018-09-26T07:30:29.749Z,74.30
2018-09-26T07:31:33.238Z,74.20
2018-09-26T07:32:36.636Z,74.10
2018-09-26T07:33:40.054Z,74.10
2018-09-26T07:34:43.451Z,74.10
2018-09-26T07:35:46.885Z,74.20
2018-09-26T07:36:50.325Z,74.20
2018-09-26T07:37:53.884Z,74.20
2018-09-26T07:38:57.321Z,74.30
2018-09-26T07:40:00.718Z,74.50
2018-09-26T07:41:04.118Z,74.50
2018-09-26T07:42:07.588Z,74.50
2018-09-26T07:43:11.005Z,74.50
2018-09-26T07:44:14.413Z,74.40
2018-09-26T07:45:17.995Z,75.00
2018-09-26T07:46:21.392Z,74.30
2018-09-26T07:47:24.792Z,74.30
2018-09-26T07:48:28.183Z,74.30
2018-09-26T07:49:31.594Z,74.40
2018-09-26T07:50:34.988Z,74.40
2018-09-26T07:51:38.439Z,74.40
2018-09-26T07:52:41.858Z,74.40
2018-09-26T07:53:45.260Z,74.40
2018-09-26T07:54:48.664Z,74.30
2018-09-26T07:55:52.094Z,74.30
2018-09-26T07:56:55.527Z,74.30
2018-09-26T07:57:58.933Z,74.30
2018-09-26T07:59:02.360Z,75.00
2018-09-26T08:00:06.903Z,74.40
2018-09-26T08:01:10.298Z,74.40
2018-09-26T08:02:13.676Z,74.90
2018-09-26T08:03:17.089Z,74.30
2018-09-26T08:04:20.493Z,74.30
2018-09-26T08:05:23.917Z,74.40
2018-09-26T08:06:27.322Z,74.40
2018-09-26T08:07:30.720Z,74.50
2018-09-26T08:08:34.132Z,74.60
2018-09-26T08:09:37.520Z,74.60
2018-09-26T08:10:40.907Z,74.60
2018-09-26T08:11:44.340Z,74.50
2018-09-26T08:12:47.709Z,74.70
2018-09-26T08:13:51.111Z,74.70
2018-09-26T08:14:54.556Z,74.60
2018-09-26T08:15:57.939Z,74.70
2018-09-26T08:17:01.369Z,74.60
2018-09-26T08:18:04.800Z,74.70
2018-09-26T08:19:09.612Z,74.70
2018-09-26T08:20:13.130Z,75.00
2018-09-26T08:21:16.608Z,74.50
2018-09-26T08:22:19.996Z,74.40
2018-09-26T08:23:23.396Z,74.40
2018-09-26T08:24:26.801Z,74.40
2018-09-26T08:25:30.184Z,74.40
2018-09-26T08:26:33.655Z,74.50
2018-09-26T08:27:37.104Z,74.50
2018-09-26T08:28:40.533Z,74.30
2018-09-26T08:29:44.005Z,74.90
2018-09-26T08:30:47.324Z,74.30
2018-09-26T08:31:50.741Z,74.10
2018-09-26T08:32:54.416Z,74.10
2018-09-26T08:33:57.814Z,73.70
2018-09-26T08:35:01.205Z,73.40
2018-09-26T08:36:04.600Z,73.40
2018-09-26T08:37:08.013Z,73.40
2018-09-26T08:38:11.517Z,73.30
2018-09-26T08:39:14.899Z,73.10
2018-09-26T08:40:18.287Z,73.00
2018-09-26T08:41:21.664Z,73.00
2018-09-26T08:42:25.097Z,73.00
2018-09-26T08:43:28.512Z,73.00
2018-09-26T08:44:31.972Z,73.00
2018-09-26T08:45:35.371Z,73.00
2018-09-26T08:46:39.103Z,73.00
2018-09-26T08:47:42.579Z,73.10
2018-09-26T08:48:46.004Z,73.10
2018-09-26T08:49:49.448Z,73.00
2018-09-26T08:50:52.837Z,73.00
2018-09-26T08:51:56.245Z,72.80
2018-09-26T08:52:59.668Z,72.40
2018-09-26T08:54:03.085Z,72.30
2018-09-26T08:55:06.473Z,72.20
2018-09-26T08:56:09.888Z,72.80
2018-09-26T08:57:13.297Z,72.60
2018-09-26T08:58:16.684Z,72.00
2018-09-26T08:59:20.110Z,72.10
2018-09-26T09:00:28.897Z,72.10
2018-09-26T09:01:37.623Z,72.70
2018-09-26T09:02:41.021Z,72.10
2018-09-26T09:03:44.449Z,72.20
2018-09-26T09:04:47.936Z,72.30
2018-09-26T09:05:52.169Z,72.30
2018-09-26T09:06:55.580Z,72.30
2018-09-26T09:07:59.344Z,72.30
2018-09-26T09:09:02.873Z,72.20
2018-09-26T09:10:06.260Z,72.20
2018-09-26T09:11:10.514Z,72.20
2018-09-26T09:12:14.017Z,72.30
2018-09-26T09:13:17.438Z,72.20
2018-09-26T09:14:20.883Z,72.10
2018-09-26T09:15:24.987Z,72.10
2018-09-26T09:16:28.482Z,71.40
2018-09-26T09:17:31.910Z,71.40
2018-09-26T09:18:35.356Z,71.40
2018-09-26T09:19:38.887Z,71.90
2018-09-26T09:20:42.277Z,71.30
2018-09-26T09:21:45.706Z,71.60
2018-09-26T09:22:49.131Z,71.20
2018-09-26T09:23:52.527Z,70.30
2018-09-26T09:24:55.939Z,70.20
2018-09-26T09:25:59.335Z,70.60
2018-09-26T09:27:02.748Z,69.90
2018-09-26T09:28:07.244Z,69.90
2018-09-26T09:29:10.746Z,69.80
2018-09-26T09:30:14.187Z,69.60
2018-09-26T09:31:17.676Z,69.60
2018-09-26T09:32:21.097Z,69.50
2018-09-26T09:33:24.484Z,69.90
2018-09-26T09:34:27.932Z,69.00
2018-09-26T09:35:31.352Z,68.70
2018-09-26T09:36:34.803Z,68.50
2018-09-26T09:37:38.180Z,68.50
2018-09-26T09:38:41.844Z,68.70
2018-09-26T09:39:45.230Z,67.90
2018-09-26T09:40:48.636Z,67.80
2018-09-26T09:41:52.100Z,67.60
2018-09-26T09:42:55.532Z,67.50
2018-09-26T09:43:58.978Z,67.10
2018-09-26T09:45:02.354Z,66.80
2018-09-26T09:46:06.282Z,66.90
2018-09-26T09:47:09.676Z,67.00
2018-09-26T09:48:13.236Z,66.60
2018-09-26T09:49:16.652Z,66.60
2018-09-26T09:50:20.204Z,66.60
2018-09-26T09:51:23.574Z,66.60
2018-09-26T09:52:26.967Z,66.80
2018-09-26T09:53:30.369Z,66.60
2018-09-26T09:54:33.776Z,66.50
2018-09-26T09:55:37.180Z,66.60
2018-09-26T09:56:40.606Z,66.60
2018-09-26T09:57:44.124Z,66.70
2018-09-26T09:58:47.598Z,66.20
2018-09-26T09:59:51.308Z,66.00
2018-09-26T10:01:00.028Z,66.00
2018-09-26T10:02:03.421Z,65.80
2018-09-26T10:03:06.988Z,66.00
2018-09-26T10:04:10.343Z,65.40
2018-09-26T10:05:13.921Z,65.60
2018-09-26T10:06:17.335Z,65.80
2018-09-26T10:07:20.761Z,66.00
2018-09-26T10:08:24.259Z,66.00
2018-09-26T10:09:27.582Z,65.40
2018-09-26T10:10:31.000Z,64.90
2018-09-26T10:11:34.384Z,64.90
2018-09-26T10:12:37.771Z,64.40
2018-09-26T10:13:41.236Z,64.00
2018-09-26T10:14:44.945Z,63.80
2018-09-26T10:15:48.356Z,63.40
2018-09-26T10:16:51.736Z,63.40
2018-09-26T10:17:55.155Z,63.50
2018-09-26T10:18:58.576Z,63.70
2018-09-26T10:20:01.969Z,63.90
2018-09-26T10:21:05.551Z,64.00
2018-09-26T10:22:09.130Z,64.20
2018-09-26T10:23:12.669Z,64.20
2018-09-26T10:24:16.059Z,64.40
2018-09-26T10:25:19.460Z,64.60
2018-09-26T10:26:22.931Z,65.30
2018-09-26T10:27:26.325Z,64.60
2018-09-26T10:28:29.712Z,64.60
2018-09-26T10:29:33.101Z,65.30
2018-09-26T10:30:36.488Z,64.90
2018-09-26T10:31:39.923Z,64.90
2018-09-26T10:32:43.348Z,64.40
2018-09-26T10:33:46.748Z,64.70
2018-09-26T10:34:50.214Z,64.70
2018-09-26T10:35:53.595Z,65.40
2018-09-26T10:36:57.025Z,64.70
2018-09-26T10:38:00.519Z,64.50
2018-09-26T10:39:05.140Z,64.50
2018-09-26T10:40:08.527Z,64.30
2018-09-26T10:41:11.964Z,64.30
2018-09-26T10:42:15.355Z,64.20
2018-09-26T10:43:18.768Z,64.40
2018-09-26T10:44:22.206Z,64.40
2018-09-26T10:45:25.592Z,64.30
2018-09-26T10:46:29.353Z,64.50
2018-09-26T10:47:32.750Z,64.50
2018-09-26T10:48:36.157Z,64.30
2018-09-26T10:49:39.607Z,64.30
2018-09-26T10:50:42.987Z,64.40
2018-09-26T10:51:46.373Z,64.30
2018-09-26T10:52:49.760Z,64.10
2018-09-26T10:53:53.310Z,63.40
2018-09-26T10:54:56.709Z,63.40
2018-09-26T10:56:00.237Z,63.40
2018-09-26T10:57:03.634Z,63.40
2018-09-26T10:58:07.029Z,63.60
2018-09-26T10:59:10.724Z,63.30
2018-09-26T11:00:14.116Z,63.10
2018-09-26T11:01:17.524Z,62.90
2018-09-26T11:02:20.928Z,63.00
2018-09-26T11:03:24.347Z,63.00
2018-09-26T11:04:27.835Z,62.90
2018-09-26T11:05:31.240Z,62.70
2018-09-26T11:06:34.637Z,62.60
2018-09-26T11:07:38.024Z,62.60
2018-09-26T11:08:41.423Z,62.00
2018-09-26T11:09:44.833Z,62.00
2018-09-26T11:10:48.253Z,62.10
2018-09-26T11:11:51.644Z,62.10
2018-09-26T11:12:55.233Z,62.40
2018-09-26T11:13:58.616Z,62.80
2018-09-26T11:15:02.027Z,62.90
2018-09-26T11:16:05.453Z,63.60
2018-09-26T11:17:08.839Z,62.90
2018-09-26T11:18:12.239Z,63.50
2018-09-26T11:19:15.648Z,62.80
2018-09-26T11:20:19.185Z,62.80
2018-09-26T11:21:22.561Z,62.80
2018-09-26T11:22:26.287Z,62.70
2018-09-26T11:23:29.648Z,62.70
2018-09-26T11:24:33.037Z,62.40
2018-09-26T11:25:36.495Z,62.70
2018-09-26T11:26:40.097Z,61.90
2018-09-26T11:27:43.436Z,61.70
2018-09-26T11:28:46.868Z,61.60
2018-09-26T11:29:50.259Z,61.40
2018-09-26T11:30:53.673Z,60.20
2018-09-26T11:31:57.101Z,60.00
2018-09-26T11:33:00.541Z,59.50
2018-09-26T11:34:03.928Z,58.90
2018-09-26T11:35:07.357Z,58.80
2018-09-26T11:36:10.747Z,58.90
2018-09-26T11:37:14.180Z,58.70
2018-09-26T11:38:17.623Z,58.60
2018-09-26T11:39:21.099Z,58.70
2018-09-26T11:40:24.533Z,58.60
2018-09-26T11:41:27.990Z,58.60
2018-09-26T11:42:31.990Z,58.30
2018-09-26T11:43:35.540Z,58.00
2018-09-26T11:44:39.012Z,57.40
2018-09-26T11:45:42.548Z,57.50
2018-09-26T11:46:45.964Z,56.60
2018-09-26T11:47:49.369Z,56.20
2018-09-26T11:48:52.764Z,55.90
2018-09-26T11:49:56.197Z,55.80
2018-09-26T11:50:59.732Z,55.80
2018-09-26T11:52:03.272Z,55.70
2018-09-26T11:53:06.722Z,55.80
2018-09-26T11:54:10.117Z,55.90
2018-09-26T11:55:13.501Z,56.00
2018-09-26T11:56:16.917Z,56.00
2018-09-26T11:57:20.349Z,56.00
2018-09-26T11:58:23.818Z,55.90
2018-09-26T11:59:27.153Z,56.20
2018-09-26T12:00:30.552Z,55.70
2018-09-26T12:01:33.993Z,55.80
2018-09-26T12:02:37.447Z,55.80
2018-09-26T12:03:40.796Z,55.80
2018-09-26T12:04:44.192Z,55.80
2018-09-26T12:05:47.689Z,55.80
2018-09-26T12:06:51.303Z,55.40
2018-09-26T12:07:54.732Z,55.30
2018-09-26T12:08:58.127Z,55.10
2018-09-26T12:10:01.529Z,54.70
2018-09-26T12:11:04.921Z,53.60
2018-09-26T12:12:08.424Z,53.20
2018-09-26T12:13:11.784Z,53.10
2018-09-26T12:14:15.184Z,53.60
2018-09-26T12:15:18.577Z,53.20
2018-09-26T12:16:22.039Z,53.10
2018-09-26T12:17:25.421Z,53.10
2018-09-26T12:18:28.836Z,53.20
2018-09-26T12:19:32.230Z,53.40
2018-09-26T12:20:35.629Z,53.60
2018-09-26T12:21:39.045Z,53.60
2018-09-26T12:22:42.476Z,53.70
2018-09-26T12:23:45.859Z,53.60
2018-09-26T12:24:49.264Z,53.00
2018-09-26T12:25:52.680Z,52.50
2018-09-26T12:26:56.079Z,52.30
2018-09-26T12:27:59.524Z,52.10
2018-09-26T12:29:02.883Z,52.10
2018-09-26T12:30:07.427Z,51.80
2018-09-26T12:31:10.800Z,51.80
2018-09-26T12:32:14.229Z,51.90
2018-09-26T12:33:17.654Z,51.70
2018-09-26T12:34:21.065Z,51.40
2018-09-26T12:35:24.485Z,51.80
2018-09-26T12:36:27.979Z,50.90
2018-09-26T12:37:31.328Z,50.80
2018-09-26T12:38:34.777Z,50.80
2018-09-26T12:39:38.167Z,50.40
2018-09-26T12:40:41.560Z,50.40
2018-09-26T12:41:44.953Z,50.50
2018-09-26T12:42:48.393Z,50.60
2018-09-26T12:43:51.777Z,51.10
2018-09-26T12:44:55.197Z,50.80
2018-09-26T12:45:58.594Z,50.80
2018-09-26T12:47:02.009Z,50.80
2018-09-26T12:48:05.706Z,51.00
2018-09-26T12:49:09.095Z,50.70
2018-09-26T12:50:12.496Z,50.40
2018-09-26T12:51:15.882Z,50.30
2018-09-26T12:52:19.328Z,49.80
2018-09-26T12:53:22.770Z,49.90
2018-09-26T12:54:26.188Z,49.80
2018-09-26T12:55:29.919Z,49.70
2018-09-26T12:56:33.349Z,49.60
2018-09-26T12:57:37.120Z,49.60
2018-09-26T12:58:40.505Z,49.70
2018-09-26T12:59:43.920Z,49.90
2018-09-26T13:00:47.379Z,49.70
2018-09-26T13:01:50.736Z,49.30
2018-09-26T13:02:54.132Z,47.90
2018-09-26T13:03:57.549Z,47.80
2018-09-26T13:05:01.009Z,48.40
2018-09-26T13:06:04.475Z,48.10
2018-09-26T13:07:07.884Z,48.20
2018-09-26T13:08:11.294Z,48.50
2018-09-26T13:09:14.713Z,49.10
2018-09-26T13:10:18.246Z,48.60
2018-09-26T13:11:21.583Z,48.60
2018-09-26T13:12:25.126Z,48.70
2018-09-26T13:13:28.500Z,49.30
2018-09-26T13:14:31.985Z,48.70
2018-09-26T13:15:35.402Z,48.70
2018-09-26T13:16:38.839Z,48.70
2018-09-26T13:17:42.234Z,48.60
2018-09-26T13:18:45.694Z,48.50
2018-09-26T13:19:49.067Z,48.40
2018-09-26T13:20:52.497Z,48.40
2018-09-26T13:21:55.950Z,48.40
2018-09-26T13:22:59.365Z,48.50
2018-09-26T13:24:02.806Z,48.60
2018-09-26T13:25:06.209Z,48.60
2018-09-26T13:26:09.649Z,48.30
2018-09-26T13:27:13.071Z,47.90
2018-09-26T13:28:16.535Z,48.00
2018-09-26T13:29:19.912Z,48.30
2018-09-26T13:30:23.389Z,48.30
2018-09-26T13:31:26.724Z,48.30
2018-09-26T13:32:30.473Z,48.30
2018-09-26T13:33:33.918Z,48.30
2018-09-26T13:34:37.332Z,48.00
2018-09-26T13:35:40.716Z,47.40
2018-09-26T13:36:44.120Z,47.20
2018-09-26T13:37:47.517Z,47.30